Crescent Mills, CA (95934)

3:40 PM PST on March 01, 2015 (GMT -0800)
RAWS CASHMAN CA US | Change Station
CLOSE
Current Station
Personal Weather Station
Location: Quincy, CA
Elevation: 4478 ft
Nearby Weather Stations

Elev 4478 ft 40.00 °N, 120.92 °W | Updated 53 minutes ago

Partly Cloudy
Partly Cloudy
47 °F
Feels Like 41 °F
N
13
Wind Variable Wind from NE
Gusts 25.0 mph

Today
High -- | Low -- °F
--% Chance of Precip.
Yesterday
High -- | Low -- °F
Precip. -- in
6:37 AM 5:55 PM
Waxing Gibbous, 88% visible
Pressure 29.91 in
Visibility 10.0 miles
Clouds Clear
Windchill 41 °F
Dew Point 21 °F
Humidity 36%
Rainfall 0.00 in
Snow Depth Not available.
UV 3 out of 12
Pollen 4.90 out of 12
Air Quality Not available.
Flu Activity Not available.
METAR KBLU 012252Z AUTO VRB05KT 10SM CLR 06/M04 A2994 RMK AO2 SLP128 T00561044

More Conditions Fewer Conditions

Pressure 29.91 in
Visibility 10.0 miles
Clouds Clear
Windchill 41 °F
Dew Point 21 °F
Humidity 36%
Rainfall 0.00 in
Snow Depth Not available.
UV 3 out of 12
Pollen 4.90 out of 12
Air Quality Not available.
Flu Activity Not available.
METAR KBLU 012252Z AUTO VRB05KT 10SM CLR 06/M04 A2994 RMK AO2 SLP128 T00561044

More Conditions Fewer Conditions

10-Day Weather Forecast

Almanac

Astronomy

Mar. 01, 2015 Rise Set
Actual Time
Civil Twilight
Nautical Twilight
Astronomical Twilight
Moon
Length of Visible Light
Length of Day
Tomorrow will be .
, % of the Moon is Illuminated

Today's Extremes

State Highs State Lows

Community

WunderPhotos

Upload Photos

1,801,614 photos uploaded!

WunderBlogs® & News

Nearby

Air Quality

  Air Quality AQ Index Pollutant
Not available.

Snow Depth

Station Depth Elevation

Earthquake Activity

City Distance Mag. Time & Date
Minimum magnitude displayed is 2.5.

Coastal Water Temperatures

Place Temperature

Nearby Weather Stations